createdAt,value
2023-10-02T00:01:25.358Z,101132.69
2023-10-02T00:04:26.962Z,101135.03
2023-10-02T00:07:28.627Z,101137.59
2023-10-02T00:10:30.252Z,101135.22
2023-10-02T00:13:31.831Z,101132.38
2023-10-02T00:16:33.323Z,101133.66
2023-10-02T00:19:34.859Z,101130.16
2023-10-02T00:22:36.446Z,101129.31
2023-10-02T00:25:37.989Z,101138.44
2023-10-02T00:28:39.534Z,101131.31
2023-10-02T00:31:41.205Z,101135.63
2023-10-02T00:34:42.808Z,101138.28
2023-10-02T00:37:44.425Z,101141.25
2023-10-02T00:40:45.989Z,101140.41
2023-10-02T00:43:47.506Z,101133.53
2023-10-02T00:46:49.117Z,101137.91
2023-10-02T00:49:50.684Z,101146.59
2023-10-02T00:52:52.203Z,101138.03
2023-10-02T00:55:53.734Z,101144.47
2023-10-02T00:58:55.241Z,101150.66
2023-10-02T01:01:56.852Z,101148.41
2023-10-02T01:04:58.471Z,101150.13
2023-10-02T01:08:00.036Z,101143.09
2023-10-02T01:11:01.576Z,101149.56
2023-10-02T01:14:03.227Z,101147.59
2023-10-02T01:17:04.902Z,101151.25
2023-10-02T01:20:06.452Z,101155.03
2023-10-02T01:23:07.970Z,101149.13
2023-10-02T01:26:09.493Z,101142.97
2023-10-02T01:29:11.025Z,101139.63
2023-10-02T01:32:12.589Z,101126.31
2023-10-02T01:35:14.101Z,101130.94
2023-10-02T01:38:15.583Z,101134.28
2023-10-02T01:41:17.113Z,101134.44
2023-10-02T01:44:18.656Z,101133.88
2023-10-02T01:47:20.228Z,101137.41
2023-10-02T01:50:21.714Z,101136.41
2023-10-02T01:53:23.231Z,101130.38
2023-10-02T01:56:24.774Z,101131.22
2023-10-02T01:59:26.298Z,101130.25
2023-10-02T02:02:27.894Z,101125.88
2023-10-02T02:05:29.451Z,101122.94
2023-10-02T02:08:30.941Z,101122.25
2023-10-02T02:11:32.407Z,101132.91
2023-10-02T02:14:33.893Z,101124.09
2023-10-02T02:17:35.489Z,101117.06
2023-10-02T02:20:37.046Z,101117.19
2023-10-02T02:23:38.497Z,101114.72
2023-10-02T02:26:40.008Z,101107.56
2023-10-02T02:29:41.582Z,101121.84
2023-10-02T02:32:43.210Z,101121.84
2023-10-02T02:35:44.729Z,101115.81
2023-10-02T02:38:46.239Z,101112.19
2023-10-02T02:41:47.772Z,101114.00
2023-10-02T02:44:49.236Z,101115.81
2023-10-02T02:47:50.815Z,101112.47
2023-10-02T02:50:52.351Z,101104.59
2023-10-02T02:53:53.827Z,101108.28
2023-10-02T02:56:55.311Z,101107.44
2023-10-02T02:59:56.781Z,101110.22
2023-10-02T03:02:58.415Z,101117.09
2023-10-02T03:06:01.008Z,101109.22
2023-10-02T03:09:02.588Z,101117.91
2023-10-02T03:12:04.085Z,101103.06
2023-10-02T03:15:05.608Z,101109.22
2023-10-02T03:18:07.131Z,101110.09
2023-10-02T03:21:08.656Z,101107.44
2023-10-02T03:24:10.129Z,101109.41
2023-10-02T03:27:11.642Z,101105.19
2023-10-02T03:30:13.143Z,101096.50
2023-10-02T03:33:14.686Z,101101.81
2023-10-02T03:36:16.159Z,101100.16
2023-10-02T03:39:17.641Z,101105.31
2023-10-02T03:42:19.126Z,101102.97
2023-10-02T03:45:20.593Z,101103.94
2023-10-02T03:48:22.122Z,101103.94
2023-10-02T03:51:23.675Z,101095.13
2023-10-02T03:54:25.198Z,101104.94
2023-10-02T03:57:26.693Z,101110.25
2023-10-02T04:00:28.228Z,101097.78
2023-10-02T04:03:29.737Z,101099.31
2023-10-02T04:06:31.449Z,101086.84
2023-10-02T04:09:33.145Z,101090.47
2023-10-02T04:12:34.632Z,101091.31
2023-10-02T04:15:36.136Z,101090.34
2023-10-02T04:18:37.650Z,101094.66
2023-10-02T04:21:39.149Z,101102.53
2023-10-02T04:24:40.622Z,101101.56
2023-10-02T04:27:42.123Z,101101.56
2023-10-02T04:30:43.607Z,101096.22
2023-10-02T04:33:45.073Z,101102.53
2023-10-02T04:36:46.568Z,101098.88
2023-10-02T04:39:48.084Z,101105.03
2023-10-02T04:42:52.371Z,101099.84
2023-10-02T04:45:54.161Z,101096.38
2023-10-02T04:48:55.856Z,101095.66
2023-10-02T04:51:57.378Z,101101.81
2023-10-02T04:54:58.890Z,101095.81
2023-10-02T04:58:00.442Z,101094.97
2023-10-02T05:01:02.031Z,101103.78
2023-10-02T05:04:10.116Z,101091.47
2023-10-02T05:07:11.606Z,101091.63
2023-10-02T05:10:13.176Z,101081.81
2023-10-02T05:13:14.651Z,101086.28
2023-10-02T05:16:16.199Z,101086.44
2023-10-02T05:19:17.663Z,101083.78
2023-10-02T05:22:19.190Z,101082.09
2023-10-02T05:25:20.698Z,101081.09
2023-10-02T05:28:22.202Z,101085.59
2023-10-02T05:31:23.693Z,101086.56
2023-10-02T05:34:25.174Z,101078.03
2023-10-02T05:37:26.650Z,101090.50
2023-10-02T05:40:28.206Z,101089.53
2023-10-02T05:43:29.759Z,101096.38
2023-10-02T05:46:31.311Z,101092.88
2023-10-02T05:49:32.815Z,101089.53
2023-10-02T05:52:37.300Z,101096.66
2023-10-02T05:55:38.847Z,101096.53
2023-10-02T05:58:40.401Z,101099.19
2023-10-02T06:01:41.978Z,101101.72
2023-10-02T06:04:43.569Z,101105.19
2023-10-02T06:07:45.972Z,101102.53
2023-10-02T06:10:47.714Z,101104.78
2023-10-02T06:13:49.283Z,101107.28
2023-10-02T06:16:50.885Z,101112.34
2023-10-02T06:19:52.490Z,101110.22
2023-10-02T06:22:54.089Z,101108.97
2023-10-02T06:25:55.704Z,101112.88
2023-10-02T06:28:57.290Z,101111.03
2023-10-02T06:31:59.007Z,101107.56
2023-10-02T06:35:00.632Z,101105.59
2023-10-02T06:38:02.243Z,101101.66
2023-10-02T06:41:03.797Z,101108.66
2023-10-02T06:44:05.346Z,101105.41
2023-10-02T06:47:07.013Z,101115.94
2023-10-02T06:50:08.592Z,101097.63
2023-10-02T06:53:10.161Z,101099.00
2023-10-02T06:56:11.726Z,101105.69
2023-10-02T06:59:13.277Z,101110.13
2023-10-02T07:02:14.899Z,101105.56
2023-10-02T07:05:16.475Z,101099.81
2023-10-02T07:08:18.017Z,101111.44
2023-10-02T07:11:19.664Z,101113.38
2023-10-02T07:14:21.442Z,101113.09
2023-10-02T07:17:23.052Z,101101.28
2023-10-02T07:20:24.720Z,101099.00
2023-10-02T07:23:26.430Z,101101.53
2023-10-02T07:26:27.984Z,101103.59
2023-10-02T07:29:29.546Z,101107.31
2023-10-02T07:32:31.354Z,101102.66
2023-10-02T07:35:34.116Z,101106.72
2023-10-02T07:38:35.637Z,101112.56
2023-10-02T07:41:37.155Z,101112.28
2023-10-02T07:44:39.616Z,101113.91
2023-10-02T07:47:41.930Z,101114.19
2023-10-02T07:50:43.494Z,101113.44
2023-10-02T07:53:45.008Z,101115.50
2023-10-02T07:56:46.503Z,101109.44
2023-10-02T07:59:47.985Z,101105.50
2023-10-02T08:02:49.595Z,101116.56
2023-10-02T08:05:51.223Z,101111.09
2023-10-02T08:08:52.753Z,101106.44
2023-10-02T08:11:54.366Z,101098.78
2023-10-02T08:14:55.902Z,101101.91
2023-10-02T08:17:57.514Z,101091.84
2023-10-02T08:20:59.061Z,101088.56
2023-10-02T08:24:00.531Z,101093.06
2023-10-02T08:27:02.056Z,101094.91
2023-10-02T08:30:03.607Z,101091.91
2023-10-02T08:33:05.204Z,101082.78
2023-10-02T08:36:07.261Z,101082.03
2023-10-02T08:39:19.788Z,101087.72
2023-10-02T08:42:22.003Z,101085.75
2023-10-02T08:45:23.561Z,101079.03
2023-10-02T08:48:25.080Z,101074.09
2023-10-02T08:51:26.580Z,101077.06
2023-10-02T08:54:28.067Z,101071.72
2023-10-02T08:57:30.653Z,101068.22
2023-10-02T09:00:32.201Z,101055.88
2023-10-02T09:03:33.796Z,101053.03
2023-10-02T09:06:35.385Z,101048.53
2023-10-02T09:09:36.934Z,101050.69
2023-10-02T09:12:38.481Z,101045.88
2023-10-02T09:15:40.005Z,101038.94
2023-10-02T09:18:41.556Z,101034.91
2023-10-02T09:21:43.090Z,101034.75
2023-10-02T09:24:44.593Z,101030.41
2023-10-02T09:27:46.106Z,101028.25
2023-10-02T09:30:47.586Z,101030.16
2023-10-02T09:34:02.530Z,101024.63
2023-10-02T09:37:54.233Z,101021.63
2023-10-02T09:40:32.186Z,101017.66
2023-10-02T09:43:33.868Z,101011.09
2023-10-02T09:46:35.421Z,101008.63
2023-10-02T09:49:38.125Z,101006.44
2023-10-02T09:52:40.739Z,101009.13
2023-10-02T09:55:42.428Z,101008.13
2023-10-02T09:58:43.925Z,101014.84
2023-10-02T10:01:45.473Z,101008.00
2023-10-02T10:04:47.006Z,101005.16
2023-10-02T10:07:48.558Z,100991.66
2023-10-02T10:10:50.285Z,100987.78
2023-10-02T10:13:52.151Z,100993.63
2023-10-02T10:16:53.774Z,100990.00
2023-10-02T10:19:55.326Z,100993.00
2023-10-02T10:22:57.088Z,100991.19
2023-10-02T10:25:58.835Z,100982.13
2023-10-02T10:29:00.673Z,100986.84
2023-10-02T10:32:02.469Z,100977.31
2023-10-02T10:35:04.042Z,100972.53
2023-10-02T10:38:05.620Z,100974.75
2023-10-02T10:41:10.824Z,100966.44
2023-10-02T10:44:12.590Z,100961.25
2023-10-02T10:47:17.045Z,100962.06
2023-10-02T10:50:18.608Z,100947.50
2023-10-02T10:53:20.174Z,100947.50
2023-10-02T10:56:22.135Z,100946.81
2023-10-02T10:59:23.722Z,100944.81
2023-10-02T11:02:25.250Z,100944.13
2023-10-02T11:05:26.839Z,100945.53
2023-10-02T11:08:28.340Z,100948.72
2023-10-02T11:11:29.864Z,100946.22
2023-10-02T11:14:31.369Z,100939.59
2023-10-02T11:17:33.045Z,100937.75
2023-10-02T11:20:34.690Z,100931.41
2023-10-02T11:23:36.289Z,100925.53
2023-10-02T11:26:37.858Z,100914.03
2023-10-02T11:29:39.504Z,100913.88
2023-10-02T11:32:41.048Z,100910.03
2023-10-02T11:35:42.693Z,100910.72
2023-10-02T11:38:44.315Z,100903.56
2023-10-02T11:41:45.908Z,100893.88
2023-10-02T11:44:47.427Z,100892.03
2023-10-02T11:47:50.217Z,100892.03
2023-10-02T11:50:52.061Z,100890.38
2023-10-02T11:53:53.579Z,100879.53
2023-10-02T11:56:55.043Z,100870.88
2023-10-02T11:59:56.580Z,100871.53
2023-10-02T12:02:58.393Z,100875.03
2023-10-02T12:06:00.166Z,100870.88
2023-10-02T12:09:01.902Z,100866.03
2023-10-02T12:12:03.501Z,100858.00
2023-10-02T12:15:05.001Z,100864.22
2023-10-02T12:18:06.578Z,100854.22
2023-10-02T12:21:08.113Z,100854.50
2023-10-02T12:24:09.590Z,100847.34
2023-10-02T12:27:11.064Z,100851.53
2023-10-02T12:30:12.678Z,100849.84
2023-10-02T12:33:14.345Z,100837.50
2023-10-02T12:36:15.885Z,100831.69
2023-10-02T12:39:17.368Z,100826.34
2023-10-02T12:42:19.021Z,100827.50
2023-10-02T12:45:20.694Z,100833.84
2023-10-02T12:48:22.323Z,100823.00
2023-10-02T12:51:23.843Z,100820.84
2023-10-02T12:54:25.352Z,100820.84
2023-10-02T12:57:26.830Z,100824.34
2023-10-02T13:00:28.350Z,100818.19
2023-10-02T13:03:29.890Z,100815.50
2023-10-02T13:06:31.454Z,100815.66
2023-10-02T13:09:33.075Z,100806.81
2023-10-02T13:12:34.551Z,100802.47
2023-10-02T13:15:36.053Z,100796.47
2023-10-02T13:18:37.629Z,100802.84
2023-10-02T13:21:39.150Z,100789.50
2023-10-02T13:24:40.645Z,100786.81
2023-10-02T13:27:42.241Z,100786.16
2023-10-02T13:30:43.848Z,100788.81
2023-10-02T13:33:45.596Z,100778.81
2023-10-02T13:36:47.108Z,100772.44
2023-10-02T13:39:48.643Z,100772.44
2023-10-02T13:42:50.145Z,100763.47
2023-10-02T13:45:51.645Z,100763.78
2023-10-02T13:48:53.417Z,100760.94
2023-10-02T13:51:55.104Z,100762.63
2023-10-02T13:54:56.690Z,100769.31
2023-10-02T13:57:58.524Z,100760.63
2023-10-02T14:01:00.288Z,100757.97
2023-10-02T14:04:01.853Z,100755.13
2023-10-02T14:07:03.525Z,100750.63
2023-10-02T14:10:06.586Z,100758.13
2023-10-02T14:13:08.094Z,100747.97
2023-10-02T14:16:09.739Z,100748.78
2023-10-02T14:19:11.368Z,100737.28
2023-10-02T14:22:12.960Z,100735.94
2023-10-02T14:25:14.444Z,100736.94
2023-10-02T14:28:15.965Z,100723.78
2023-10-02T14:31:17.503Z,100728.91
2023-10-02T14:34:19.053Z,100714.75
2023-10-02T14:37:20.571Z,100716.59
2023-10-02T14:40:22.080Z,100711.91
2023-10-02T14:43:23.540Z,100706.72
2023-10-02T14:46:25.226Z,100709.41
2023-10-02T14:49:27.039Z,100708.41
2023-10-02T14:52:28.517Z,100702.22
2023-10-02T14:55:30.000Z,100711.09
2023-10-02T14:58:31.493Z,100710.22
2023-10-02T15:01:33.004Z,100703.75
2023-10-02T15:04:34.483Z,100712.75
2023-10-02T15:07:35.986Z,100700.22
2023-10-02T15:10:37.452Z,100704.56
2023-10-02T15:13:38.982Z,100703.75
2023-10-02T15:16:40.608Z,100691.22
2023-10-02T15:19:42.120Z,100698.41
2023-10-02T15:22:43.626Z,100694.06
2023-10-02T15:25:45.151Z,100683.22
2023-10-02T15:28:46.634Z,100684.88
2023-10-02T15:31:48.121Z,100673.34
2023-10-02T15:34:49.600Z,100678.69
2023-10-02T15:37:51.087Z,100672.38
2023-10-02T15:40:52.601Z,100669.53
2023-10-02T15:43:54.232Z,100669.69
2023-10-02T15:46:55.765Z,100665.03
2023-10-02T15:49:57.342Z,100657.84
2023-10-02T15:52:59.335Z,100655.16
2023-10-02T15:56:01.133Z,100652.34
2023-10-02T15:59:02.915Z,100648.00
2023-10-02T16:02:04.702Z,100649.69
2023-10-02T16:05:06.287Z,100648.66
2023-10-02T16:08:07.847Z,100645.97
2023-10-02T16:11:09.439Z,100649.50
2023-10-02T16:14:11.083Z,100641.50
2023-10-02T16:17:12.638Z,100645.00
2023-10-02T16:20:14.133Z,100643.97
2023-10-02T16:23:15.770Z,100637.81
2023-10-02T16:26:17.417Z,100635.81
2023-10-02T16:29:18.928Z,100641.97
2023-10-02T16:32:20.457Z,100641.16
2023-10-02T16:35:22.019Z,100634.81
2023-10-02T16:38:23.919Z,100637.50
2023-10-02T16:41:25.640Z,100639.31
2023-10-02T16:44:28.616Z,100641.97
2023-10-02T16:47:30.224Z,100641.00
2023-10-02T16:50:31.883Z,100640.16
2023-10-02T16:53:33.490Z,100641.81
2023-10-02T16:56:35.057Z,100650.31
2023-10-02T16:59:36.654Z,100653.00
2023-10-02T17:02:38.340Z,100654.69
2023-10-02T17:05:39.917Z,100656.34
2023-10-02T17:08:41.475Z,100659.00
2023-10-02T17:11:43.066Z,100659.81
2023-10-02T17:14:44.549Z,100662.34
2023-10-02T17:17:46.070Z,100657.84
2023-10-02T17:20:47.695Z,100665.69
2023-10-02T17:23:49.276Z,100668.34
2023-10-02T17:26:50.771Z,100673.53
2023-10-02T17:29:52.235Z,100665.34
2023-10-02T17:32:53.872Z,100667.00
2023-10-02T17:35:55.415Z,100664.16
2023-10-02T17:38:56.899Z,100659.66
2023-10-02T17:41:58.396Z,100664.84
2023-10-02T17:44:59.928Z,100659.50
2023-10-02T17:48:04.690Z,100661.00
2023-10-02T17:51:06.402Z,100664.00
2023-10-02T17:54:07.994Z,100670.84
2023-10-02T17:57:09.523Z,100667.19
2023-10-02T18:00:11.037Z,100667.19
2023-10-02T18:03:12.575Z,100663.50
2023-10-02T18:06:14.088Z,100658.16
2023-10-02T18:12:15.746Z,100654.66
2023-10-02T18:15:17.229Z,100660.81
2023-10-02T18:18:18.751Z,100663.50
2023-10-02T18:21:20.214Z,100653.81
2023-10-02T18:24:21.690Z,100664.50
2023-10-02T18:27:23.230Z,100660.00
2023-10-02T18:30:24.698Z,100661.84
2023-10-02T18:33:26.271Z,100661.00
2023-10-02T18:36:27.862Z,100666.34
2023-10-02T18:39:29.335Z,100658.50
2023-10-02T18:42:30.938Z,100662.00
2023-10-02T18:45:32.464Z,100660.34
2023-10-02T18:48:33.970Z,100658.50
2023-10-02T18:51:35.466Z,100658.66
2023-10-02T18:54:36.967Z,100659.50
2023-10-02T18:57:38.461Z,100655.16
2023-10-02T19:00:39.976Z,100660.69
2023-10-02T19:03:41.638Z,100656.31
2023-10-02T19:06:43.185Z,100652.81
2023-10-02T19:09:44.711Z,100650.31
2023-10-02T19:12:46.244Z,100653.19
2023-10-02T19:15:47.723Z,100651.34
2023-10-02T19:18:49.262Z,100644.50
2023-10-02T19:21:50.806Z,100631.97
2023-10-02T19:24:52.266Z,100636.66
2023-10-02T19:27:53.760Z,100631.31
2023-10-02T19:30:55.241Z,100625.31
2023-10-02T19:33:56.743Z,100625.31
2023-10-02T19:36:58.278Z,100617.44
2023-10-02T19:39:59.768Z,100616.78
2023-10-02T19:43:01.256Z,100617.78
2023-10-02T19:46:02.840Z,100608.13
2023-10-02T19:49:04.392Z,100609.09
2023-10-02T19:52:05.877Z,100605.59
2023-10-02T19:55:07.383Z,100603.94
2023-10-02T19:58:08.867Z,100601.25
2023-10-02T20:01:10.361Z,100595.09
2023-10-02T20:04:11.898Z,100594.25
2023-10-02T20:07:13.414Z,100591.75
2023-10-02T20:10:14.975Z,100580.25
2023-10-02T20:13:16.514Z,100587.59
2023-10-02T20:16:18.048Z,100593.09
2023-10-02T20:19:20.082Z,100589.59
2023-10-02T20:22:21.583Z,100586.28
2023-10-02T20:25:23.063Z,100578.41
2023-10-02T20:28:24.634Z,100583.91
2023-10-02T20:31:26.172Z,100574.25
2023-10-02T20:34:36.625Z,100576.94
2023-10-02T20:37:39.301Z,100573.59
2023-10-02T20:40:42.817Z,100579.94
2023-10-02T20:43:44.763Z,100566.91
2023-10-02T20:46:51.051Z,100558.06
2023-10-02T20:49:57.714Z,100553.75
2023-10-02T20:52:59.220Z,100541.22
2023-10-02T20:56:01.059Z,100542.41
2023-10-02T20:59:02.875Z,100539.06
2023-10-02T21:02:04.529Z,100541.91
2023-10-02T21:05:06.106Z,100539.22
2023-10-02T21:08:07.708Z,100533.03
2023-10-02T21:11:09.277Z,100537.56
2023-10-02T21:14:10.853Z,100540.38
2023-10-02T21:17:12.418Z,100534.38
2023-10-02T21:20:14.013Z,100532.72
2023-10-02T21:23:15.595Z,100535.41
2023-10-02T21:26:17.205Z,100533.91
2023-10-02T21:29:18.895Z,100530.38
2023-10-02T21:32:20.544Z,100523.56
2023-10-02T21:35:22.096Z,100529.72
2023-10-02T21:38:24.194Z,100527.22
2023-10-02T21:41:25.838Z,100520.22
2023-10-02T21:44:27.432Z,100521.22
2023-10-02T21:47:30.290Z,100516.91
2023-10-02T21:50:32.065Z,100515.19
2023-10-02T21:53:33.662Z,100518.00
2023-10-02T21:56:35.295Z,100509.34
2023-10-02T21:59:36.834Z,100504.19
2023-10-02T22:02:38.530Z,100500.00
2023-10-02T22:05:40.129Z,100493.84
2023-10-02T22:08:41.688Z,100494.00
2023-10-02T22:11:43.308Z,100488.00
2023-10-02T22:14:45.002Z,100482.66
2023-10-02T22:17:46.760Z,100480.16
2023-10-02T22:20:48.323Z,100482.16
2023-10-02T22:23:49.920Z,100483.84
2023-10-02T22:26:51.447Z,100476.16
2023-10-02T22:29:55.209Z,100478.16
2023-10-02T22:32:58.197Z,100470.16
2023-10-02T22:35:59.814Z,100465.00
2023-10-02T22:39:01.705Z,100473.00
2023-10-02T22:42:03.307Z,100460.00
2023-10-02T22:45:04.821Z,100472.53
2023-10-02T22:48:06.466Z,100473.50
2023-10-02T22:51:08.014Z,100465.88
2023-10-02T22:54:09.544Z,100458.84
2023-10-02T22:57:11.027Z,100457.00
2023-10-02T23:00:12.524Z,100457.88
2023-10-02T23:03:14.113Z,100456.84
2023-10-02T23:06:15.691Z,100450.03
2023-10-02T23:09:17.180Z,100448.03
2023-10-02T23:12:18.693Z,100440.19
2023-10-02T23:15:20.196Z,100436.84
2023-10-02T23:18:21.765Z,100437.50
2023-10-02T23:21:23.308Z,100425.16
2023-10-02T23:24:24.789Z,100431.50
2023-10-02T23:27:26.227Z,100430.84
2023-10-02T23:30:27.749Z,100427.34
2023-10-02T23:33:29.300Z,100422.84
2023-10-02T23:36:30.853Z,100407.84
2023-10-02T23:39:32.303Z,100411.34
2023-10-02T23:42:33.890Z,100413.00
2023-10-02T23:45:35.444Z,100415.00
2023-10-02T23:48:36.963Z,100411.84
2023-10-02T23:51:38.485Z,100409.84
2023-10-02T23:54:40.126Z,100400.19
2023-10-02T23:57:41.658Z,100403.84
